createdAt,value
2023-03-21T00:01:00.710Z,99.90
2023-03-21T00:03:27.542Z,99.90
2023-03-21T00:05:54.466Z,99.90
2023-03-21T00:10:57.936Z,99.90
2023-03-21T00:13:26.617Z,99.90
2023-03-21T00:16:08.175Z,99.90
2023-03-21T00:18:52.396Z,99.90
2023-03-21T00:21:41.054Z,99.90
2023-03-21T00:24:08.750Z,99.90
2023-03-21T00:26:36.044Z,99.90
2023-03-21T00:29:02.766Z,99.90
2023-03-21T00:31:29.764Z,99.90
2023-03-21T00:33:57.050Z,99.90
2023-03-21T00:36:26.100Z,99.90
2023-03-21T00:38:53.537Z,99.90
2023-03-21T00:41:35.151Z,99.90
2023-03-21T00:44:07.232Z,99.90
2023-03-21T00:46:45.265Z,99.90
2023-03-21T00:49:16.175Z,99.90
2023-03-21T00:51:43.824Z,99.90
2023-03-21T00:54:12.821Z,99.90
2023-03-21T00:56:39.554Z,99.90
2023-03-21T00:59:06.511Z,99.90
2023-03-21T01:01:34.683Z,99.90
2023-03-21T01:04:13.650Z,99.90
2023-03-21T01:06:42.987Z,99.90
2023-03-21T01:11:35.574Z,99.90
2023-03-21T01:14:18.648Z,99.90
2023-03-21T01:16:48.224Z,99.90
2023-03-21T01:19:26.341Z,99.90
2023-03-21T01:21:56.462Z,99.90
2023-03-21T01:24:23.409Z,99.90
2023-03-21T01:26:50.203Z,99.90
2023-03-21T01:29:17.099Z,99.90
2023-03-21T01:31:43.887Z,99.90
2023-03-21T01:34:10.858Z,99.90
2023-03-21T01:36:37.859Z,99.90
2023-03-21T01:39:06.736Z,99.90
2023-03-21T01:41:43.385Z,99.90
2023-03-21T01:44:16.387Z,99.90
2023-03-21T01:46:57.051Z,99.90
2023-03-21T01:49:35.166Z,99.90
2023-03-21T01:52:13.033Z,99.90
2023-03-21T01:54:44.022Z,99.90
2023-03-21T01:57:22.066Z,99.90
2023-03-21T01:59:51.602Z,99.90
2023-03-21T02:02:26.458Z,99.90
2023-03-21T03:26:26.492Z,99.90
2023-03-21T03:28:58.246Z,99.90
2023-03-21T03:31:34.298Z,99.90
2023-03-21T03:34:12.682Z,99.90
2023-03-21T03:36:47.693Z,99.90
2023-03-21T03:39:16.373Z,99.90
2023-03-21T03:42:18.396Z,99.90
2023-03-21T03:44:39.205Z,99.90
2023-03-21T03:47:10.704Z,99.90
2023-03-21T03:49:48.608Z,99.90
2023-03-21T03:52:29.687Z,99.90
2023-03-21T03:54:56.837Z,99.90
2023-03-21T03:57:26.195Z,99.90
2023-03-21T03:59:53.450Z,99.90
2023-03-21T04:02:20.552Z,99.90
2023-03-21T04:04:52.883Z,99.90
2023-03-21T04:07:21.626Z,99.90
2023-03-21T04:09:48.880Z,99.90
2023-03-21T04:12:15.624Z,99.90
2023-03-21T04:14:47.238Z,99.90
2023-03-21T04:17:15.415Z,99.90
2023-03-21T04:19:42.651Z,99.90
2023-03-21T04:22:09.418Z,99.90
2023-03-21T04:24:37.498Z,99.90
2023-03-21T04:27:05.938Z,99.90
2023-03-21T04:29:33.389Z,99.90
2023-03-21T04:32:01.442Z,99.90
2023-03-21T04:34:29.220Z,99.90
2023-03-21T04:36:56.422Z,99.90
2023-03-21T04:39:24.744Z,99.90
2023-03-21T04:41:51.917Z,99.90
2023-03-21T04:44:19.348Z,99.90
2023-03-21T04:46:46.143Z,99.90
2023-03-21T04:49:13.017Z,99.90
2023-03-21T04:51:40.498Z,99.90
2023-03-21T04:56:35.665Z,99.90
2023-03-21T04:59:11.894Z,99.90
2023-03-21T05:01:41.290Z,99.90
2023-03-21T05:04:08.171Z,99.90
2023-03-21T05:06:35.408Z,99.90
2023-03-21T05:11:37.687Z,99.90
2023-03-21T05:14:10.099Z,99.90
2023-03-21T05:16:39.179Z,99.90
2023-03-21T05:19:05.933Z,99.90
2023-03-21T05:21:41.459Z,99.90
2023-03-21T05:24:12.306Z,99.90
2023-03-21T05:26:40.831Z,99.90
2023-03-21T05:29:07.757Z,99.90
2023-03-21T05:31:34.643Z,99.90
2023-03-21T05:34:01.410Z,99.90
2023-03-21T05:36:28.273Z,99.90
2023-03-21T05:38:55.131Z,99.90
2023-03-21T05:41:21.872Z,99.90
2023-03-21T05:43:48.592Z,99.90
2023-03-21T05:46:15.456Z,99.90
2023-03-21T05:48:42.260Z,99.90
2023-03-21T05:51:09.031Z,99.90
2023-03-21T05:53:35.777Z,99.90
2023-03-21T05:56:02.965Z,99.90
2023-03-21T05:58:29.844Z,99.90
2023-03-21T06:00:56.657Z,99.90
2023-03-21T06:03:23.438Z,99.90
2023-03-21T06:05:50.292Z,99.90
2023-03-21T06:08:17.045Z,99.90
2023-03-21T06:10:43.809Z,99.90
2023-03-21T06:13:10.593Z,99.90
2023-03-21T06:15:37.604Z,99.90
2023-03-21T06:18:04.542Z,99.90
2023-03-21T06:20:31.261Z,99.90
2023-03-21T06:22:58.075Z,99.90
2023-03-21T06:25:25.087Z,99.90
2023-03-21T06:27:51.856Z,99.90
2023-03-21T06:30:18.884Z,99.90
2023-03-21T06:32:45.782Z,99.90
2023-03-21T06:35:12.551Z,99.90
2023-03-21T06:37:39.399Z,99.90
2023-03-21T06:40:07.152Z,99.90
2023-03-21T06:42:33.880Z,99.90
2023-03-21T06:45:01.137Z,99.90
2023-03-21T06:47:27.899Z,99.90
2023-03-21T06:49:54.630Z,99.90
2023-03-21T06:52:21.385Z,99.90
2023-03-21T06:54:48.129Z,99.90
2023-03-21T06:57:14.946Z,99.90
2023-03-21T06:59:42.070Z,99.90
2023-03-21T07:02:11.247Z,99.90
2023-03-21T07:04:38.068Z,99.90
2023-03-21T07:07:04.885Z,99.90
2023-03-21T07:09:31.647Z,99.90
2023-03-21T07:11:58.505Z,99.90
2023-03-21T07:14:25.689Z,99.90
2023-03-21T07:16:52.517Z,99.90
2023-03-21T07:19:19.450Z,99.90
2023-03-21T07:21:46.351Z,99.90
2023-03-21T07:24:13.137Z,99.90
2023-03-21T07:26:39.880Z,99.90
2023-03-21T07:29:06.662Z,99.90
2023-03-21T07:31:33.467Z,99.90
2023-03-21T07:34:00.624Z,99.90
2023-03-21T07:36:28.215Z,99.90
2023-03-21T07:38:55.055Z,99.90
2023-03-21T07:41:21.815Z,99.90
2023-03-21T07:43:48.595Z,99.90
2023-03-21T07:46:15.472Z,99.90
2023-03-21T07:48:42.289Z,99.90
2023-03-21T07:51:09.654Z,99.90
2023-03-21T07:53:36.452Z,99.90
2023-03-21T07:56:04.162Z,99.90
2023-03-21T07:58:30.920Z,99.90
2023-03-21T08:00:58.782Z,99.90
2023-03-21T08:03:29.216Z,99.90
2023-03-21T08:05:56.068Z,99.90
2023-03-21T08:08:22.797Z,99.90
2023-03-21T08:10:49.578Z,99.90
2023-03-21T08:13:16.400Z,99.90
2023-03-21T08:15:43.367Z,99.90
2023-03-21T08:18:11.171Z,99.90
2023-03-21T08:20:37.957Z,99.90
2023-03-21T08:23:04.742Z,99.90
2023-03-21T08:25:31.584Z,99.90
2023-03-21T08:27:58.359Z,99.90
2023-03-21T08:30:28.186Z,99.90
2023-03-21T08:33:01.458Z,99.90
2023-03-21T08:35:29.537Z,99.90
2023-03-21T08:37:56.293Z,99.90
2023-03-21T08:40:23.165Z,99.90
2023-03-21T08:42:49.937Z,99.90
2023-03-21T08:45:18.398Z,99.90
2023-03-21T08:47:46.251Z,99.90
2023-03-21T08:50:16.817Z,99.90
2023-03-21T08:52:43.947Z,99.90
2023-03-21T08:55:11.924Z,99.90
2023-03-21T08:57:39.078Z,99.90
2023-03-21T09:00:13.936Z,99.90
2023-03-21T09:02:41.847Z,99.90
2023-03-21T09:05:09.503Z,99.90
2023-03-21T09:07:36.437Z,99.90
2023-03-21T09:10:21.869Z,99.90
2023-03-21T09:12:54.352Z,99.90
2023-03-21T09:15:24.975Z,99.90
2023-03-21T09:17:54.228Z,99.90
2023-03-21T09:20:33.128Z,99.90
2023-03-21T09:23:01.828Z,99.90
2023-03-21T09:25:31.524Z,99.90
2023-03-21T09:27:59.640Z,99.90
2023-03-21T09:30:26.704Z,99.90
2023-03-21T09:32:55.824Z,99.90
2023-03-21T09:35:24.376Z,99.90
2023-03-21T09:37:51.365Z,99.90
2023-03-21T09:40:31.985Z,99.90
2023-03-21T09:43:07.343Z,99.90
2023-03-21T09:45:48.043Z,99.90
2023-03-21T09:48:34.038Z,99.90
2023-03-21T09:51:02.982Z,99.90
2023-03-21T09:53:35.558Z,99.90
2023-03-21T09:56:03.713Z,99.90
2023-03-21T09:58:40.472Z,99.90
2023-03-21T10:01:22.372Z,99.90
2023-03-21T10:03:53.790Z,99.90
2023-03-21T10:06:30.588Z,99.90
2023-03-21T10:12:01.729Z,99.90
2023-03-21T10:14:58.110Z,99.90
2023-03-21T10:17:37.763Z,99.90
2023-03-21T10:20:21.816Z,99.90
2023-03-21T10:22:51.811Z,99.90
2023-03-21T10:25:26.297Z,99.90
2023-03-21T10:27:53.200Z,99.90
2023-03-21T10:30:40.638Z,99.90
2023-03-21T10:33:12.357Z,99.90
2023-03-21T10:35:41.857Z,99.90
2023-03-21T10:38:16.621Z,99.90
2023-03-21T10:40:43.852Z,99.90
2023-03-21T10:43:25.901Z,99.90
2023-03-21T10:45:53.878Z,99.90
2023-03-21T10:48:21.490Z,99.90
2023-03-21T10:50:51.881Z,99.90
2023-03-21T10:53:35.754Z,99.90
2023-03-21T10:56:06.721Z,99.90
2023-03-21T10:58:39.626Z,99.90
2023-03-21T11:01:10.057Z,99.90
2023-03-21T11:03:43.621Z,99.90
2023-03-21T11:06:30.805Z,99.90
2023-03-21T11:11:42.006Z,99.90
2023-03-21T11:14:26.325Z,99.90
2023-03-21T11:16:53.162Z,99.90
2023-03-21T11:19:29.693Z,99.90
2023-03-21T11:21:58.928Z,99.90
2023-03-21T11:24:30.397Z,99.90
2023-03-21T11:26:59.001Z,99.90
2023-03-21T11:29:38.905Z,99.90
2023-03-21T11:32:32.436Z,99.90
2023-03-21T11:35:04.910Z,98.60
2023-03-21T11:37:40.041Z,95.40
2023-03-21T11:40:28.608Z,82.60
2023-03-21T11:43:18.660Z,55.80
2023-03-21T11:46:22.807Z,54.20
2023-03-21T11:48:49.897Z,54.80
2023-03-21T11:51:28.862Z,71.00
2023-03-21T11:54:00.451Z,63.20
2023-03-21T11:56:37.996Z,51.10
2023-03-21T11:59:17.715Z,43.50
2023-03-21T12:02:02.906Z,16.20
2023-03-21T12:04:44.722Z,2.00
2023-03-21T12:07:17.258Z,1.00
2023-03-21T12:09:46.448Z,1.00
2023-03-21T12:12:38.501Z,1.00
2023-03-21T12:15:16.712Z,1.00
2023-03-21T12:17:58.690Z,1.00
2023-03-21T12:20:31.744Z,1.00
2023-03-21T12:23:06.046Z,1.00
2023-03-21T12:25:40.195Z,1.00
2023-03-21T12:28:42.881Z,1.00
2023-03-21T12:31:32.557Z,1.00
2023-03-21T12:34:04.997Z,1.00
2023-03-21T12:36:41.467Z,1.00
2023-03-21T12:39:31.553Z,1.00
2023-03-21T12:42:31.306Z,1.00
2023-03-21T12:45:08.929Z,1.00
2023-03-21T12:47:48.823Z,1.00
2023-03-21T12:50:19.508Z,1.00
2023-03-21T12:52:52.969Z,1.00
2023-03-21T12:55:30.893Z,1.00
2023-03-21T12:58:09.690Z,1.00
2023-03-21T13:00:58.384Z,1.00
2023-03-21T13:03:39.850Z,1.00
2023-03-21T13:06:16.451Z,1.00
2023-03-21T13:11:39.731Z,1.00
2023-03-21T13:14:15.597Z,1.00
2023-03-21T13:17:04.292Z,1.00
2023-03-21T13:20:01.600Z,1.00
2023-03-21T13:22:30.732Z,1.00
2023-03-21T13:25:15.523Z,1.00
2023-03-21T13:27:46.179Z,1.00
2023-03-21T13:30:26.396Z,1.00
2023-03-21T13:33:08.470Z,1.00
2023-03-21T13:35:39.324Z,1.00
2023-03-21T13:38:21.280Z,1.00
2023-03-21T13:40:49.578Z,1.00
2023-03-21T13:43:35.130Z,1.00
2023-03-21T13:46:26.269Z,1.00
2023-03-21T13:48:58.856Z,1.00
2023-03-21T13:51:29.130Z,1.00
2023-03-21T13:54:02.694Z,1.00
2023-03-21T13:56:30.661Z,1.00
2023-03-21T13:59:03.692Z,1.00
2023-03-21T14:01:41.768Z,1.00
2023-03-21T14:04:32.218Z,1.00
2023-03-21T14:07:26.454Z,1.00
2023-03-21T14:09:57.778Z,1.00
2023-03-21T14:12:28.507Z,1.00
2023-03-21T14:15:14.160Z,1.00
2023-03-21T14:17:51.704Z,1.00
2023-03-21T14:20:29.345Z,1.00
2023-03-21T14:22:56.519Z,1.00
2023-03-21T14:25:29.217Z,1.00
2023-03-21T14:28:01.365Z,1.00
2023-03-21T14:30:32.976Z,1.00
2023-03-21T14:33:04.832Z,1.00
2023-03-21T14:35:32.908Z,1.00
2023-03-21T14:38:07.501Z,1.00
2023-03-21T14:40:34.616Z,1.00
2023-03-21T14:43:07.199Z,1.00
2023-03-21T14:45:37.225Z,1.00
2023-03-21T14:48:12.772Z,1.00
2023-03-21T14:50:48.255Z,1.00
2023-03-21T14:53:27.344Z,1.00
2023-03-21T14:55:58.894Z,1.00
2023-03-21T14:58:26.754Z,1.00
2023-03-21T15:00:57.347Z,1.00
2023-03-21T15:03:27.540Z,1.00
2023-03-21T15:05:55.836Z,1.00
2023-03-21T15:08:26.022Z,1.00
2023-03-21T15:11:13.209Z,1.00
2023-03-21T15:13:52.914Z,1.00
2023-03-21T15:16:20.788Z,1.00
2023-03-21T15:18:49.353Z,1.00
2023-03-21T15:21:27.833Z,1.00
2023-03-21T15:23:58.140Z,1.00
2023-03-21T15:26:26.060Z,1.00
2023-03-21T15:29:00.590Z,1.00
2023-03-21T15:31:34.665Z,1.00
2023-03-21T15:34:01.900Z,1.00
2023-03-21T15:36:34.366Z,1.00
2023-03-21T15:39:05.053Z,1.00
2023-03-21T15:41:33.265Z,1.00
2023-03-21T15:44:26.221Z,1.00
2023-03-21T15:46:53.843Z,1.00
2023-03-21T15:49:27.283Z,1.00
2023-03-21T15:52:07.209Z,1.00
2023-03-21T15:54:44.315Z,1.00
2023-03-21T15:57:24.698Z,1.00
2023-03-21T15:59:58.989Z,1.00
2023-03-21T16:02:30.871Z,1.00
2023-03-21T16:04:58.773Z,1.00
2023-03-21T16:07:25.732Z,1.00
2023-03-21T16:10:01.466Z,1.00
2023-03-21T16:12:28.249Z,1.00
2023-03-21T16:14:55.600Z,1.00
2023-03-21T16:17:37.725Z,1.00
2023-03-21T16:20:17.535Z,1.00
2023-03-21T16:22:44.388Z,1.00
2023-03-21T16:25:11.236Z,1.00
2023-03-21T16:27:38.113Z,1.00
2023-03-21T16:30:06.743Z,1.00
2023-03-21T16:32:34.202Z,1.00
2023-03-21T16:35:01.337Z,1.00
2023-03-21T16:37:28.127Z,1.00
2023-03-21T16:39:54.910Z,1.00
2023-03-21T16:42:21.702Z,1.00
2023-03-21T16:44:48.418Z,1.00
2023-03-21T16:47:17.270Z,1.00
2023-03-21T16:49:44.700Z,1.00
2023-03-21T16:52:13.010Z,1.00
2023-03-21T16:54:41.353Z,1.00
2023-03-21T16:57:16.700Z,1.00
2023-03-21T16:59:43.946Z,1.00
2023-03-21T17:02:16.497Z,1.00
2023-03-21T17:04:44.649Z,1.00
2023-03-21T17:07:16.028Z,1.00
2023-03-21T17:09:43.927Z,15.40
2023-03-21T17:12:13.788Z,18.80
2023-03-21T17:14:42.041Z,37.40
2023-03-21T17:17:13.625Z,43.60
2023-03-21T17:19:40.553Z,45.90
2023-03-21T17:22:07.980Z,54.90
2023-03-21T17:24:35.721Z,57.80
2023-03-21T17:27:03.977Z,55.80
2023-03-21T17:29:31.103Z,55.90
2023-03-21T17:31:57.864Z,55.40
2023-03-21T17:34:24.844Z,53.20
2023-03-21T17:36:51.682Z,50.50
2023-03-21T17:39:26.728Z,59.50
2023-03-21T17:41:54.282Z,55.60
2023-03-21T17:44:21.721Z,37.20
2023-03-21T17:46:51.616Z,46.70
2023-03-21T17:49:19.178Z,35.50
2023-03-21T17:51:47.125Z,30.20
2023-03-21T17:54:14.083Z,33.00
2023-03-21T17:56:42.130Z,36.10
2023-03-21T17:59:12.703Z,33.70
2023-03-21T18:01:39.505Z,31.00
2023-03-21T18:04:06.466Z,31.40
2023-03-21T18:06:34.761Z,43.60
2023-03-21T18:11:39.278Z,54.30
2023-03-21T18:14:15.941Z,51.90
2023-03-21T18:16:44.942Z,57.80
2023-03-21T18:19:13.333Z,62.10
2023-03-21T18:21:45.752Z,57.20
2023-03-21T18:24:13.466Z,61.10
2023-03-21T18:26:41.047Z,70.20
2023-03-21T18:32:05.895Z,75.80
2023-03-21T18:34:34.730Z,78.70
2023-03-21T18:37:03.914Z,86.20
2023-03-21T18:39:31.749Z,84.40
2023-03-21T18:41:59.861Z,89.50
2023-03-21T18:44:29.880Z,88.80
2023-03-21T18:46:57.803Z,91.40
2023-03-21T18:50:06.033Z,92.60
2023-03-21T18:52:12.302Z,93.90
2023-03-21T18:54:39.637Z,94.60
2023-03-21T18:57:35.218Z,98.90
2023-03-21T18:59:54.173Z,97.70
2023-03-21T19:02:21.451Z,96.40
2023-03-21T19:04:48.433Z,99.90
2023-03-21T19:07:15.634Z,99.90
2023-03-21T19:10:05.324Z,99.90
2023-03-21T19:12:29.777Z,99.90
2023-03-21T19:14:56.832Z,99.90
2023-03-21T19:20:11.998Z,99.90
2023-03-21T19:22:38.820Z,99.90
2023-03-21T19:25:07.231Z,99.90
2023-03-21T19:27:35.836Z,99.90
2023-03-21T19:30:13.879Z,99.90
2023-03-21T19:32:41.866Z,99.90
2023-03-21T19:35:09.445Z,99.90
2023-03-21T19:37:36.886Z,99.90
2023-03-21T19:40:06.041Z,99.90
2023-03-21T19:42:33.212Z,99.90
2023-03-21T19:45:00.466Z,99.90
2023-03-21T19:47:27.316Z,99.90
2023-03-21T19:50:42.088Z,99.90
2023-03-21T19:52:42.322Z,99.90
2023-03-21T19:55:09.286Z,99.90
2023-03-21T19:57:36.355Z,99.90
2023-03-21T20:00:04.376Z,99.90
2023-03-21T20:02:36.623Z,99.90
2023-03-21T20:05:07.894Z,99.90
2023-03-21T20:07:35.085Z,99.90
2023-03-21T20:10:02.159Z,99.90
2023-03-21T20:12:28.968Z,99.90
2023-03-21T20:15:15.778Z,99.90
2023-03-21T20:17:43.189Z,99.90
2023-03-21T20:20:13.741Z,99.90
2023-03-21T20:25:28.507Z,99.90
2023-03-21T20:28:12.856Z,99.90
2023-03-21T20:31:00.551Z,99.90
2023-03-21T20:33:28.260Z,99.90
2023-03-21T20:38:43.784Z,99.90
2023-03-21T20:41:10.530Z,99.90
2023-03-21T20:44:25.485Z,99.90
2023-03-21T20:46:24.236Z,99.90
2023-03-21T20:48:51.000Z,99.90
2023-03-21T20:52:26.886Z,99.90
2023-03-21T20:54:04.643Z,99.90
2023-03-21T20:56:31.566Z,99.90
2023-03-21T20:59:14.593Z,99.90
2023-03-21T21:01:45.605Z,99.90
2023-03-21T21:04:15.073Z,99.90
2023-03-21T21:06:42.075Z,99.90
2023-03-21T21:12:05.605Z,99.90
2023-03-21T21:14:26.993Z,99.90
2023-03-21T21:16:54.656Z,99.90
2023-03-21T21:19:21.812Z,99.90
2023-03-21T21:21:48.731Z,99.90
2023-03-21T21:24:15.492Z,99.90
2023-03-21T21:26:46.321Z,99.90
2023-03-21T21:29:17.227Z,99.90
2023-03-21T21:31:49.062Z,99.90
2023-03-21T21:34:18.096Z,99.90
2023-03-21T21:36:45.146Z,99.90
2023-03-21T21:39:15.947Z,99.90
2023-03-21T21:41:43.203Z,99.90
2023-03-21T21:44:11.019Z,99.90
2023-03-21T21:46:38.104Z,99.90
2023-03-21T21:49:05.045Z,99.90
2023-03-21T21:51:33.982Z,99.90
2023-03-21T21:54:03.559Z,99.90
2023-03-21T21:56:32.614Z,99.90
2023-03-21T21:59:03.168Z,99.90
2023-03-21T22:01:30.752Z,99.90
2023-03-21T22:04:06.087Z,99.90
2023-03-21T22:06:33.784Z,99.90
2023-03-21T22:11:33.761Z,99.90
2023-03-21T22:14:00.547Z,99.90
2023-03-21T22:16:27.373Z,99.90
2023-03-21T22:18:54.201Z,99.90
2023-03-21T22:21:21.295Z,99.90
2023-03-21T22:23:48.017Z,99.90
2023-03-21T22:26:15.229Z,99.90
2023-03-21T22:28:43.300Z,99.90
2023-03-21T22:31:13.127Z,99.90
2023-03-21T22:33:40.074Z,99.90
2023-03-21T22:36:07.296Z,99.90
2023-03-21T22:38:34.688Z,99.90
2023-03-21T22:41:05.436Z,99.90
2023-03-21T22:43:34.329Z,99.90
2023-03-21T22:46:05.595Z,99.90
2023-03-21T22:48:32.863Z,99.90
2023-03-21T22:51:00.812Z,99.90
2023-03-21T22:53:28.380Z,99.90
2023-03-21T22:55:55.479Z,99.90
2023-03-21T22:58:22.372Z,99.90
2023-03-21T23:00:49.222Z,99.90
2023-03-21T23:03:17.010Z,99.90
2023-03-21T23:05:45.033Z,99.90
2023-03-21T23:08:12.457Z,99.90
2023-03-21T23:10:41.475Z,99.90
2023-03-21T23:13:08.810Z,99.90
2023-03-21T23:15:35.721Z,99.90
2023-03-21T23:18:02.558Z,99.90
2023-03-21T23:20:29.320Z,99.90
2023-03-21T23:22:56.066Z,99.90
2023-03-21T23:25:24.893Z,99.90
2023-03-21T23:27:51.917Z,99.90
2023-03-21T23:30:18.781Z,99.90
2023-03-21T23:32:48.344Z,99.90
2023-03-21T23:35:15.082Z,99.90
2023-03-21T23:37:50.058Z,99.90
2023-03-21T23:40:16.893Z,99.90
2023-03-21T23:42:43.679Z,99.90
2023-03-21T23:45:11.019Z,99.90
2023-03-21T23:47:37.785Z,99.90
2023-03-21T23:50:07.810Z,99.90
2023-03-21T23:52:34.601Z,99.90
2023-03-21T23:55:01.485Z,99.90
2023-03-21T23:57:28.211Z,99.90
2023-03-21T23:59:55.783Z,99.90
